sensor_id;sensor_type;location;lat;lon;timestamp;pressure;altitude;pressure_sealevel;temperature;humidity
27613;BME280;15036;48.094;-1.690;2023-02-28T00:00:23;102196.16;;;7.35;47.73
27613;BME280;15036;48.094;-1.690;2023-02-28T00:02:49;102191.00;;;7.13;48.02
27613;BME280;15036;48.094;-1.690;2023-02-28T00:05:17;102180.47;;;7.48;47.23
27613;BME280;15036;48.094;-1.690;2023-02-28T00:07:43;102178.91;;;7.27;47.61
27613;BME280;15036;48.094;-1.690;2023-02-28T00:10:11;102188.59;;;7.48;47.57
27613;BME280;15036;48.094;-1.690;2023-02-28T00:12:37;102193.03;;;7.30;47.81
27613;BME280;15036;48.094;-1.690;2023-02-28T00:15:10;102189.00;;;7.63;47.02
27613;BME280;15036;48.094;-1.690;2023-02-28T00:17:37;102183.00;;;7.69;46.88
27613;BME280;15036;48.094;-1.690;2023-02-28T00:20:03;102184.31;;;7.46;47.57
27613;BME280;15036;48.094;-1.690;2023-02-28T00:22:44;102190.88;;;7.43;47.41
27613;BME280;15036;48.094;-1.690;2023-02-28T00:25:12;102187.19;;;7.44;47.39
27613;BME280;15036;48.094;-1.690;2023-02-28T00:27:39;102192.75;;;7.24;48.04
27613;BME280;15036;48.094;-1.690;2023-02-28T00:30:06;102192.88;;;7.13;48.24
27613;BME280;15036;48.094;-1.690;2023-02-28T00:32:31;102198.16;;;6.95;48.83
27613;BME280;15036;48.094;-1.690;2023-02-28T00:34:57;102184.75;;;7.03;48.51
27613;BME280;15036;48.094;-1.690;2023-02-28T00:37:22;102191.72;;;7.06;48.49
27613;BME280;15036;48.094;-1.690;2023-02-28T00:39:48;102196.59;;;7.12;48.48
27613;BME280;15036;48.094;-1.690;2023-02-28T00:42:13;102201.72;;;6.95;48.65
27613;BME280;15036;48.094;-1.690;2023-02-28T00:44:39;102196.16;;;7.07;48.34
27613;BME280;15036;48.094;-1.690;2023-02-28T00:47:04;102194.88;;;7.11;48.48
27613;BME280;15036;48.094;-1.690;2023-02-28T00:49:30;102195.47;;;7.24;48.08
27613;BME280;15036;48.094;-1.690;2023-02-28T00:51:55;102191.75;;;7.25;47.87
27613;BME280;15036;48.094;-1.690;2023-02-28T00:54:23;102191.59;;;7.17;47.83
27613;BME280;15036;48.094;-1.690;2023-02-28T00:56:49;102195.31;;;7.16;48.23
27613;BME280;15036;48.094;-1.690;2023-02-28T00:59:15;102191.16;;;7.21;48.28
27613;BME280;15036;48.094;-1.690;2023-02-28T01:01:41;102194.88;;;7.20;47.81
27613;BME280;15036;48.094;-1.690;2023-02-28T01:04:07;102192.44;;;6.88;48.23
27613;BME280;15036;48.094;-1.690;2023-02-28T01:06:33;102191.00;;;7.03;48.33
27613;BME280;15036;48.094;-1.690;2023-02-28T01:08:58;102188.03;;;7.07;47.87
27613;BME280;15036;48.094;-1.690;2023-02-28T01:11:24;102186.44;;;7.23;47.88
27613;BME280;15036;48.094;-1.690;2023-02-28T01:13:50;102193.25;;;6.79;48.50
27613;BME280;15036;48.094;-1.690;2023-02-28T01:16:15;102197.41;;;6.83;48.78
27613;BME280;15036;48.094;-1.690;2023-02-28T01:18:40;102203.28;;;6.88;48.78
27613;BME280;15036;48.094;-1.690;2023-02-28T01:21:09;102190.69;;;6.87;48.83
27613;BME280;15036;48.094;-1.690;2023-02-28T01:23:34;102200.53;;;6.69;48.96
27613;BME280;15036;48.094;-1.690;2023-02-28T01:26:08;102199.47;;;7.10;47.92
27613;BME280;15036;48.094;-1.690;2023-02-28T01:28:34;102201.84;;;6.94;48.46
27613;BME280;15036;48.094;-1.690;2023-02-28T01:31:00;102205.06;;;6.59;49.18
27613;BME280;15036;48.094;-1.690;2023-02-28T01:33:25;102203.50;;;6.66;49.26
27613;BME280;15036;48.094;-1.690;2023-02-28T01:36:00;102200.13;;;6.83;48.72
27613;BME280;15036;48.094;-1.690;2023-02-28T01:38:26;102197.50;;;6.63;49.11
27613;BME280;15036;48.094;-1.690;2023-02-28T01:40:52;102199.00;;;6.95;48.34
27613;BME280;15036;48.094;-1.690;2023-02-28T01:43:27;102202.31;;;7.09;48.12
27613;BME280;15036;48.094;-1.690;2023-02-28T01:45:54;102211.50;;;6.68;48.60
27613;BME280;15036;48.094;-1.690;2023-02-28T01:48:24;102201.28;;;6.90;48.72
27613;BME280;15036;48.094;-1.690;2023-02-28T01:50:51;102206.56;;;6.82;48.94
27613;BME280;15036;48.094;-1.690;2023-02-28T01:53:21;102200.41;;;6.80;48.78
27613;BME280;15036;48.094;-1.690;2023-02-28T01:55:51;102204.22;;;6.68;48.89
27613;BME280;15036;48.094;-1.690;2023-02-28T01:58:18;102209.16;;;6.54;49.26
27613;BME280;15036;48.094;-1.690;2023-02-28T02:00:43;102205.97;;;6.69;48.80
27613;BME280;15036;48.094;-1.690;2023-02-28T02:03:11;102210.84;;;6.75;48.78
27613;BME280;15036;48.094;-1.690;2023-02-28T02:05:39;102209.91;;;7.15;48.05
27613;BME280;15036;48.094;-1.690;2023-02-28T02:08:09;102206.56;;;6.82;48.24
27613;BME280;15036;48.094;-1.690;2023-02-28T02:10:40;102216.50;;;6.63;48.84
27613;BME280;15036;48.094;-1.690;2023-02-28T02:13:32;102220.59;;;7.07;47.57
27613;BME280;15036;48.094;-1.690;2023-02-28T02:19:39;102218.31;;;7.12;47.71
27613;BME280;15036;48.094;-1.690;2023-02-28T02:27:57;102219.41;;;6.90;48.30
27613;BME280;15036;48.094;-1.690;2023-02-28T02:36:45;102213.28;;;6.88;48.38
27613;BME280;15036;48.094;-1.690;2023-02-28T02:39:16;102217.00;;;6.96;48.37
27613;BME280;15036;48.094;-1.690;2023-02-28T02:42:10;102215.75;;;6.51;49.02
27613;BME280;15036;48.094;-1.690;2023-02-28T02:45:01;102217.75;;;6.49;49.27
27613;BME280;15036;48.094;-1.690;2023-02-28T02:47:30;102213.81;;;6.72;49.06
27613;BME280;15036;48.094;-1.690;2023-02-28T02:50:00;102214.63;;;6.24;49.87
27613;BME280;15036;48.094;-1.690;2023-02-28T02:52:37;102212.34;;;6.59;49.12
27613;BME280;15036;48.094;-1.690;2023-02-28T02:55:05;102215.13;;;6.48;49.51
27613;BME280;15036;48.094;-1.690;2023-02-28T02:57:36;102211.44;;;6.49;49.36
27613;BME280;15036;48.094;-1.690;2023-02-28T03:00:05;102213.13;;;6.40;49.36
27613;BME280;15036;48.094;-1.690;2023-02-28T03:02:35;102211.69;;;6.06;50.36
27613;BME280;15036;48.094;-1.690;2023-02-28T03:05:07;102210.31;;;6.51;49.13
27613;BME280;15036;48.094;-1.690;2023-02-28T03:07:34;102211.25;;;6.80;48.63
27613;BME280;15036;48.094;-1.690;2023-02-28T03:09:59;102204.47;;;6.56;49.08
27613;BME280;15036;48.094;-1.690;2023-02-28T03:12:34;102211.44;;;6.19;49.91
27613;BME280;15036;48.094;-1.690;2023-02-28T03:15:26;102200.41;;;6.10;50.12
27613;BME280;15036;48.094;-1.690;2023-02-28T03:18:06;102209.84;;;6.46;49.50
27613;BME280;15036;48.094;-1.690;2023-02-28T03:23:21;102213.47;;;5.96;50.60
27613;BME280;15036;48.094;-1.690;2023-02-28T03:28:46;102206.59;;;6.22;49.92
27613;BME280;15036;48.094;-1.690;2023-02-28T03:34:13;102206.00;;;6.39;49.29
27613;BME280;15036;48.094;-1.690;2023-02-28T03:36:45;102215.66;;;6.32;49.13
27613;BME280;15036;48.094;-1.690;2023-02-28T03:39:22;102215.47;;;6.54;49.12
27613;BME280;15036;48.094;-1.690;2023-02-28T03:41:57;102211.75;;;6.55;49.05
27613;BME280;15036;48.094;-1.690;2023-02-28T03:47:03;102217.25;;;6.84;48.06
27613;BME280;15036;48.094;-1.690;2023-02-28T03:49:45;102223.06;;;6.60;48.44
27613;BME280;15036;48.094;-1.690;2023-02-28T03:52:13;102211.84;;;6.44;48.85
27613;BME280;15036;48.094;-1.690;2023-02-28T03:54:48;102207.47;;;6.53;48.75
27613;BME280;15036;48.094;-1.690;2023-02-28T04:00:10;102216.19;;;6.56;48.72
27613;BME280;15036;48.094;-1.690;2023-02-28T04:02:37;102197.63;;;6.22;49.31
27613;BME280;15036;48.094;-1.690;2023-02-28T04:05:02;102215.75;;;6.51;48.91
27613;BME280;15036;48.094;-1.690;2023-02-28T04:07:31;102206.06;;;6.28;49.27
27613;BME280;15036;48.094;-1.690;2023-02-28T04:09:57;102211.63;;;6.27;49.37
27613;BME280;15036;48.094;-1.690;2023-02-28T04:12:22;102218.44;;;6.42;48.94
27613;BME280;15036;48.094;-1.690;2023-02-28T04:14:49;102211.84;;;6.44;48.85
27613;BME280;15036;48.094;-1.690;2023-02-28T04:17:15;102209.63;;;6.59;48.62
27613;BME280;15036;48.094;-1.690;2023-02-28T04:19:40;102218.00;;;6.46;48.59
27613;BME280;15036;48.094;-1.690;2023-02-28T04:22:06;102215.25;;;6.37;49.00
27613;BME280;15036;48.094;-1.690;2023-02-28T04:24:31;102208.75;;;6.19;49.21
27613;BME280;15036;48.094;-1.690;2023-02-28T04:26:57;102214.81;;;6.32;49.10
27613;BME280;15036;48.094;-1.690;2023-02-28T04:29:26;102223.25;;;6.08;49.58
27613;BME280;15036;48.094;-1.690;2023-02-28T04:31:52;102219.16;;;5.93;49.59
27613;BME280;15036;48.094;-1.690;2023-02-28T04:34:18;102226.13;;;5.75;50.27
27613;BME280;15036;48.094;-1.690;2023-02-28T04:36:44;102222.44;;;5.76;50.23
27613;BME280;15036;48.094;-1.690;2023-02-28T04:39:11;102224.56;;;5.72;50.29
27613;BME280;15036;48.094;-1.690;2023-02-28T04:41:36;102223.16;;;5.78;50.27
27613;BME280;15036;48.094;-1.690;2023-02-28T04:44:02;102217.91;;;5.97;50.13
27613;BME280;15036;48.094;-1.690;2023-02-28T04:46:27;102236.16;;;5.63;51.02
27613;BME280;15036;48.094;-1.690;2023-02-28T04:48:53;102229.41;;;5.89;50.41
27613;BME280;15036;48.094;-1.690;2023-02-28T04:51:20;102236.22;;;5.84;50.45
27613;BME280;15036;48.094;-1.690;2023-02-28T04:53:46;102235.56;;;5.91;50.16
27613;BME280;15036;48.094;-1.690;2023-02-28T04:56:14;102238.13;;;5.93;49.93
27613;BME280;15036;48.094;-1.690;2023-02-28T04:58:40;102238.50;;;5.88;50.16
27613;BME280;15036;48.094;-1.690;2023-02-28T05:01:14;102243.53;;;5.72;50.59
27613;BME280;15036;48.094;-1.690;2023-02-28T05:03:42;102245.75;;;5.67;50.47
27613;BME280;15036;48.094;-1.690;2023-02-28T05:06:08;102246.97;;;5.74;50.26
27613;BME280;15036;48.094;-1.690;2023-02-28T05:08:34;102240.41;;;5.77;50.44
27613;BME280;15036;48.094;-1.690;2023-02-28T05:11:00;102243.28;;;5.96;50.19
27613;BME280;15036;48.094;-1.690;2023-02-28T05:13:28;102254.25;;;5.94;49.66
27613;BME280;15036;48.094;-1.690;2023-02-28T05:15:54;102253.41;;;5.83;49.94
27613;BME280;15036;48.094;-1.690;2023-02-28T05:18:19;102262.06;;;5.77;50.01
27613;BME280;15036;48.094;-1.690;2023-02-28T05:20:45;102258.16;;;6.01;49.70
27613;BME280;15036;48.094;-1.690;2023-02-28T05:23:12;102262.53;;;6.13;49.24
27613;BME280;15036;48.094;-1.690;2023-02-28T05:25:38;102268.88;;;6.03;49.32
27613;BME280;15036;48.094;-1.690;2023-02-28T05:28:03;102271.72;;;6.01;49.48
27613;BME280;15036;48.094;-1.690;2023-02-28T05:30:29;102273.41;;;6.02;49.51
27613;BME280;15036;48.094;-1.690;2023-02-28T05:32:55;102268.47;;;6.07;49.07
27613;BME280;15036;48.094;-1.690;2023-02-28T05:35:20;102266.63;;;5.87;49.31
27613;BME280;15036;48.094;-1.690;2023-02-28T05:37:45;102269.91;;;5.91;49.26
27613;BME280;15036;48.094;-1.690;2023-02-28T05:40:11;102271.50;;;6.14;49.15
27613;BME280;15036;48.094;-1.690;2023-02-28T05:42:37;102272.09;;;5.76;49.67
27613;BME280;15036;48.094;-1.690;2023-02-28T05:45:04;102281.09;;;5.97;49.49
27613;BME280;15036;48.094;-1.690;2023-02-28T05:47:29;102285.72;;;5.75;49.93
27613;BME280;15036;48.094;-1.690;2023-02-28T05:49:54;102288.66;;;5.83;49.70
27613;BME280;15036;48.094;-1.690;2023-02-28T05:52:20;102289.75;;;5.91;49.28
27613;BME280;15036;48.094;-1.690;2023-02-28T05:54:46;102296.03;;;5.92;49.15
27613;BME280;15036;48.094;-1.690;2023-02-28T05:57:12;102297.56;;;5.74;49.63
27613;BME280;15036;48.094;-1.690;2023-02-28T05:59:37;102295.25;;;6.01;49.28
27613;BME280;15036;48.094;-1.690;2023-02-28T06:02:05;102301.88;;;5.76;49.48
27613;BME280;15036;48.094;-1.690;2023-02-28T06:04:31;102295.84;;;5.84;49.55
27613;BME280;15036;48.094;-1.690;2023-02-28T06:06:56;102304.38;;;5.68;49.38
27613;BME280;15036;48.094;-1.690;2023-02-28T06:09:22;102299.13;;;5.56;50.04
27613;BME280;15036;48.094;-1.690;2023-02-28T06:11:48;102302.19;;;5.31;50.41
27613;BME280;15036;48.094;-1.690;2023-02-28T06:14:16;102297.22;;;5.67;49.81
27613;BME280;15036;48.094;-1.690;2023-02-28T06:16:41;102296.94;;;5.50;50.15
27613;BME280;15036;48.094;-1.690;2023-02-28T06:19:09;102296.84;;;5.72;49.37
27613;BME280;15036;48.094;-1.690;2023-02-28T06:21:34;102300.09;;;5.55;49.85
27613;BME280;15036;48.094;-1.690;2023-02-28T06:24:00;102296.31;;;5.14;50.43
27613;BME280;15036;48.094;-1.690;2023-02-28T06:26:26;102294.47;;;5.15;50.39
27613;BME280;15036;48.094;-1.690;2023-02-28T06:28:51;102296.97;;;5.39;50.18
27613;BME280;15036;48.094;-1.690;2023-02-28T06:31:17;102294.38;;;5.37;50.01
27613;BME280;15036;48.094;-1.690;2023-02-28T06:33:44;102298.72;;;5.28;50.38
27613;BME280;15036;48.094;-1.690;2023-02-28T06:36:12;102298.78;;;5.49;49.79
27613;BME280;15036;48.094;-1.690;2023-02-28T06:38:38;102297.59;;;5.63;49.38
27613;BME280;15036;48.094;-1.690;2023-02-28T06:41:04;102299.28;;;5.86;48.97
27613;BME280;15036;48.094;-1.690;2023-02-28T06:43:32;102306.34;;;5.66;49.33
27613;BME280;15036;48.094;-1.690;2023-02-28T06:45:59;102294.38;;;5.69;49.09
27613;BME280;15036;48.094;-1.690;2023-02-28T06:48:26;102309.38;;;5.73;49.00
27613;BME280;15036;48.094;-1.690;2023-02-28T06:50:52;102296.56;;;5.86;48.95
27613;BME280;15036;48.094;-1.690;2023-02-28T06:53:25;102299.19;;;5.76;48.91
27613;BME280;15036;48.094;-1.690;2023-02-28T06:55:51;102307.94;;;5.69;49.27
27613;BME280;15036;48.094;-1.690;2023-02-28T06:58:16;102311.28;;;5.61;49.36
27613;BME280;15036;48.094;-1.690;2023-02-28T07:00:45;102314.81;;;5.73;48.93
27613;BME280;15036;48.094;-1.690;2023-02-28T07:03:12;102311.56;;;5.90;48.63
27613;BME280;15036;48.094;-1.690;2023-02-28T07:05:38;102319.94;;;5.87;48.88
27613;BME280;15036;48.094;-1.690;2023-02-28T07:08:05;102317.53;;;5.84;48.64
27613;BME280;15036;48.094;-1.690;2023-02-28T07:10:34;102315.47;;;5.97;48.48
27613;BME280;15036;48.094;-1.690;2023-02-28T07:13:03;102326.06;;;5.68;49.08
27613;BME280;15036;48.094;-1.690;2023-02-28T07:15:29;102331.19;;;5.71;49.18
27613;BME280;15036;48.094;-1.690;2023-02-28T07:17:54;102323.72;;;5.64;49.16
27613;BME280;15036;48.094;-1.690;2023-02-28T07:20:20;102329.00;;;5.65;49.13
27613;BME280;15036;48.094;-1.690;2023-02-28T07:22:46;102335.44;;;5.64;49.14
27613;BME280;15036;48.094;-1.690;2023-02-28T07:25:16;102340.34;;;5.59;49.35
27613;BME280;15036;48.094;-1.690;2023-02-28T07:27:42;102342.34;;;6.00;48.46
27613;BME280;15036;48.094;-1.690;2023-02-28T07:30:07;102341.91;;;5.73;48.92
27613;BME280;15036;48.094;-1.690;2023-02-28T07:32:33;102333.56;;;5.96;48.60
27613;BME280;15036;48.094;-1.690;2023-02-28T07:35:03;102355.59;;;5.71;48.90
27613;BME280;15036;48.094;-1.690;2023-02-28T07:37:29;102352.09;;;5.91;48.32
27613;BME280;15036;48.094;-1.690;2023-02-28T07:39:56;102356.31;;;5.73;48.29
27613;BME280;15036;48.094;-1.690;2023-02-28T07:42:22;102369.38;;;6.11;48.08
27613;BME280;15036;48.094;-1.690;2023-02-28T07:44:47;102363.66;;;6.14;48.12
27613;BME280;15036;48.094;-1.690;2023-02-28T07:47:14;102368.72;;;6.19;47.90
27613;BME280;15036;48.094;-1.690;2023-02-28T07:49:39;102371.00;;;6.02;48.08
27613;BME280;15036;48.094;-1.690;2023-02-28T07:52:06;102369.25;;;6.33;47.42
27613;BME280;15036;48.094;-1.690;2023-02-28T07:54:32;102375.19;;;6.27;47.40
27613;BME280;15036;48.094;-1.690;2023-02-28T07:56:57;102379.84;;;6.16;47.69
27613;BME280;15036;48.094;-1.690;2023-02-28T07:59:23;102383.16;;;6.40;47.36
27613;BME280;15036;48.094;-1.690;2023-02-28T08:01:48;102378.66;;;6.29;47.31
27613;BME280;15036;48.094;-1.690;2023-02-28T08:04:16;102375.41;;;6.35;47.31
27613;BME280;15036;48.094;-1.690;2023-02-28T08:06:41;102379.44;;;6.61;47.14
27613;BME280;15036;48.094;-1.690;2023-02-28T08:09:07;102386.03;;;6.48;46.82
27613;BME280;15036;48.094;-1.690;2023-02-28T08:11:33;102381.00;;;6.84;46.61
27613;BME280;15036;48.094;-1.690;2023-02-28T08:13:58;102385.06;;;6.69;46.97
27613;BME280;15036;48.094;-1.690;2023-02-28T08:16:23;102374.28;;;6.88;46.24
27613;BME280;15036;48.094;-1.690;2023-02-28T08:18:51;102384.94;;;7.01;45.86
27613;BME280;15036;48.094;-1.690;2023-02-28T08:21:18;102379.38;;;7.03;46.03
27613;BME280;15036;48.094;-1.690;2023-02-28T08:23:46;102373.09;;;7.12;45.58
27613;BME280;15036;48.094;-1.690;2023-02-28T08:26:12;102372.88;;;6.94;45.64
27613;BME280;15036;48.094;-1.690;2023-02-28T08:28:38;102377.06;;;6.77;46.04
27613;BME280;15036;48.094;-1.690;2023-02-28T08:31:08;102377.63;;;7.01;45.40
27613;BME280;15036;48.094;-1.690;2023-02-28T08:33:34;102382.00;;;7.23;45.15
27613;BME280;15036;48.094;-1.690;2023-02-28T08:35:59;102395.34;;;7.36;44.86
27613;BME280;15036;48.094;-1.690;2023-02-28T08:38:25;102388.06;;;7.36;44.99
27613;BME280;15036;48.094;-1.690;2023-02-28T08:40:57;102395.84;;;7.60;44.67
27613;BME280;15036;48.094;-1.690;2023-02-28T08:43:23;102387.13;;;7.66;44.40
27613;BME280;15036;48.094;-1.690;2023-02-28T08:45:51;102389.56;;;7.69;44.11
27613;BME280;15036;48.094;-1.690;2023-02-28T08:48:17;102385.72;;;7.71;43.80
27613;BME280;15036;48.094;-1.690;2023-02-28T08:50:42;102387.78;;;7.39;44.20
27613;BME280;15036;48.094;-1.690;2023-02-28T08:53:07;102386.44;;;7.93;43.72
27613;BME280;15036;48.094;-1.690;2023-02-28T08:55:33;102395.19;;;7.96;43.60
27613;BME280;15036;48.094;-1.690;2023-02-28T08:57:58;102389.56;;;7.69;43.73
27613;BME280;15036;48.094;-1.690;2023-02-28T09:00:24;102384.72;;;7.82;43.56
27613;BME280;15036;48.094;-1.690;2023-02-28T09:02:52;102387.88;;;8.06;42.83
27613;BME280;15036;48.094;-1.690;2023-02-28T09:05:17;102392.03;;;7.91;42.97
27613;BME280;15036;48.094;-1.690;2023-02-28T09:07:42;102381.16;;;8.01;43.14
27613;BME280;15036;48.094;-1.690;2023-02-28T09:10:09;102384.72;;;8.11;43.10
27613;BME280;15036;48.094;-1.690;2023-02-28T09:12:37;102395.47;;;8.22;43.13
27613;BME280;15036;48.094;-1.690;2023-02-28T09:15:03;102388.00;;;8.14;43.24
27613;BME280;15036;48.094;-1.690;2023-02-28T09:17:28;102394.94;;;8.28;42.68
27613;BME280;15036;48.094;-1.690;2023-02-28T09:19:53;102388.72;;;8.16;42.92
27613;BME280;15036;48.094;-1.690;2023-02-28T09:22:19;102400.06;;;8.40;42.42
27613;BME280;15036;48.094;-1.690;2023-02-28T09:24:44;102407.50;;;8.38;42.42
27613;BME280;15036;48.094;-1.690;2023-02-28T09:27:10;102403.50;;;8.04;42.64
27613;BME280;15036;48.094;-1.690;2023-02-28T09:29:35;102403.25;;;8.36;42.15
27613;BME280;15036;48.094;-1.690;2023-02-28T09:32:01;102396.19;;;8.52;41.68
27613;BME280;15036;48.094;-1.690;2023-02-28T09:34:27;102406.06;;;8.06;42.29
27613;BME280;15036;48.094;-1.690;2023-02-28T09:36:53;102400.50;;;8.45;41.99
27613;BME280;15036;48.094;-1.690;2023-02-28T09:39:20;102399.50;;;8.46;41.67
27613;BME280;15036;48.094;-1.690;2023-02-28T09:41:48;102402.53;;;8.34;41.94
27613;BME280;15036;48.094;-1.690;2023-02-28T09:44:37;102396.75;;;8.65;41.57
27613;BME280;15036;48.094;-1.690;2023-02-28T09:47:17;102394.63;;;8.59;41.15
27613;BME280;15036;48.094;-1.690;2023-02-28T09:49:45;102390.41;;;8.74;40.89
27613;BME280;15036;48.094;-1.690;2023-02-28T09:52:17;102400.13;;;8.87;40.39
27613;BME280;15036;48.094;-1.690;2023-02-28T09:54:44;102393.03;;;9.13;39.99
27613;BME280;15036;48.094;-1.690;2023-02-28T10:08:27;102404.44;;;8.89;38.95
27613;BME280;15036;48.094;-1.690;2023-02-28T10:10:59;102397.75;;;9.11;38.60
27613;BME280;15036;48.094;-1.690;2023-02-28T10:13:36;102387.97;;;9.18;38.35
27613;BME280;15036;48.094;-1.690;2023-02-28T10:16:07;102407.56;;;9.58;37.48
27613;BME280;15036;48.094;-1.690;2023-02-28T10:18:43;102404.19;;;9.46;37.57
27613;BME280;15036;48.094;-1.690;2023-02-28T10:21:25;102400.69;;;9.54;37.22
27613;BME280;15036;48.094;-1.690;2023-02-28T10:23:58;102399.56;;;9.47;37.13
27613;BME280;15036;48.094;-1.690;2023-02-28T10:26:28;102397.53;;;9.58;36.80
27613;BME280;15036;48.094;-1.690;2023-02-28T10:28:55;102388.81;;;9.73;36.21
27613;BME280;15036;48.094;-1.690;2023-02-28T10:31:20;102396.75;;;9.39;36.29
27613;BME280;15036;48.094;-1.690;2023-02-28T10:33:47;102388.03;;;9.35;36.25
27613;BME280;15036;48.094;-1.690;2023-02-28T10:36:18;102380.31;;;9.76;35.31
27613;BME280;15036;48.094;-1.690;2023-02-28T10:38:45;102380.28;;;9.04;36.86
27613;BME280;15036;48.094;-1.690;2023-02-28T10:41:26;102380.22;;;9.13;36.66
27613;BME280;15036;48.094;-1.690;2023-02-28T10:43:53;102380.50;;;9.74;36.15
27613;BME280;15036;48.094;-1.690;2023-02-28T10:46:39;102377.06;;;9.45;35.58
27613;BME280;15036;48.094;-1.690;2023-02-28T10:49:13;102376.72;;;9.75;35.42
27613;BME280;15036;48.094;-1.690;2023-02-28T10:51:40;102367.06;;;9.63;35.54
27613;BME280;15036;48.094;-1.690;2023-02-28T10:54:15;102369.47;;;9.48;35.18
27613;BME280;15036;48.094;-1.690;2023-02-28T10:56:41;102360.44;;;9.66;35.04
27613;BME280;15036;48.094;-1.690;2023-02-28T10:59:42;102368.56;;;9.75;35.46
27613;BME280;15036;48.094;-1.690;2023-02-28T11:02:36;102355.59;;;10.22;34.49
27613;BME280;15036;48.094;-1.690;2023-02-28T11:05:24;102364.94;;;9.57;35.54
27613;BME280;15036;48.094;-1.690;2023-02-28T11:07:54;102364.69;;;10.13;34.86
27613;BME280;15036;48.094;-1.690;2023-02-28T11:10:22;102367.00;;;10.43;33.93
27613;BME280;15036;48.094;-1.690;2023-02-28T11:12:54;102350.63;;;10.94;33.10
27613;BME280;15036;48.094;-1.690;2023-02-28T11:15:27;102353.72;;;10.99;32.52
27613;BME280;15036;48.094;-1.690;2023-02-28T11:20:33;102342.13;;;11.05;31.72
27613;BME280;15036;48.094;-1.690;2023-02-28T11:23:03;102342.78;;;10.22;32.26
27613;BME280;15036;48.094;-1.690;2023-02-28T11:25:30;102334.31;;;10.51;32.62
27613;BME280;15036;48.094;-1.690;2023-02-28T11:27:59;102328.03;;;10.84;31.91
27613;BME280;15036;48.094;-1.690;2023-02-28T11:30:39;102320.13;;;11.07;31.89
27613;BME280;15036;48.094;-1.690;2023-02-28T11:33:31;102319.66;;;10.34;32.53
27613;BME280;15036;48.094;-1.690;2023-02-28T11:36:02;102312.13;;;10.80;31.33
27613;BME280;15036;48.094;-1.690;2023-02-28T11:38:28;102298.56;;;10.70;31.51
27613;BME280;15036;48.094;-1.690;2023-02-28T11:52:04;102277.81;;;11.35;30.61
27613;BME280;15036;48.094;-1.690;2023-02-28T11:54:36;102280.22;;;10.88;31.43
27613;BME280;15036;48.094;-1.690;2023-02-28T12:05:45;102268.94;;;11.25;31.58
27613;BME280;15036;48.094;-1.690;2023-02-28T12:14:06;102248.63;;;11.44;31.15
27613;BME280;15036;48.094;-1.690;2023-02-28T12:16:47;102251.75;;;10.91;32.11
27613;BME280;15036;48.094;-1.690;2023-02-28T12:19:19;102257.31;;;11.23;31.77
27613;BME280;15036;48.094;-1.690;2023-02-28T12:27:37;102228.88;;;11.98;31.30
27613;BME280;15036;48.094;-1.690;2023-02-28T12:30:28;102227.94;;;11.25;31.88
27613;BME280;15036;48.094;-1.690;2023-02-28T12:33:04;102219.28;;;12.10;31.43
27613;BME280;15036;48.094;-1.690;2023-02-28T12:35:37;102232.47;;;11.82;31.52
27613;BME280;15036;48.094;-1.690;2023-02-28T12:38:38;102222.66;;;11.48;32.48
27613;BME280;15036;48.094;-1.690;2023-02-28T12:41:19;102208.53;;;11.68;32.19
27613;BME280;15036;48.094;-1.690;2023-02-28T12:43:57;102207.31;;;12.03;32.04
27613;BME280;15036;48.094;-1.690;2023-02-28T12:46:32;102187.47;;;11.85;31.89
27613;BME280;15036;48.094;-1.690;2023-02-28T12:49:06;102208.81;;;12.30;31.29
27613;BME280;15036;48.094;-1.690;2023-02-28T12:51:34;102198.31;;;12.49;31.39
27613;BME280;15036;48.094;-1.690;2023-02-28T12:54:21;102186.50;;;12.41;31.12
27613;BME280;15036;48.094;-1.690;2023-02-28T12:56:54;102199.16;;;12.88;31.04
27613;BME280;15036;48.094;-1.690;2023-02-28T12:59:31;102190.53;;;12.99;30.88
27613;BME280;15036;48.094;-1.690;2023-02-28T13:02:09;102177.44;;;12.87;31.23
27613;BME280;15036;48.094;-1.690;2023-02-28T13:05:07;102175.44;;;12.73;31.54
27613;BME280;15036;48.094;-1.690;2023-02-28T13:10:45;102161.72;;;12.34;32.18
27613;BME280;15036;48.094;-1.690;2023-02-28T13:13:32;102159.09;;;12.87;31.84
27613;BME280;15036;48.094;-1.690;2023-02-28T13:18:43;102169.53;;;12.84;31.98
27613;BME280;15036;48.094;-1.690;2023-02-28T13:21:22;102145.47;;;13.02;31.69
27613;BME280;15036;48.094;-1.690;2023-02-28T13:23:58;102130.75;;;13.03;31.58
27613;BME280;15036;48.094;-1.690;2023-02-28T13:31:24;102131.22;;;14.18;30.68
27613;BME280;15036;48.094;-1.690;2023-02-28T13:36:31;102138.34;;;14.13;30.49
27613;BME280;15036;48.094;-1.690;2023-02-28T13:38:57;102130.03;;;14.06;30.56
27613;BME280;15036;48.094;-1.690;2023-02-28T13:44:09;102131.19;;;14.55;30.19
27613;BME280;15036;48.094;-1.690;2023-02-28T13:49:29;102117.69;;;14.17;30.68
27613;BME280;15036;48.094;-1.690;2023-02-28T13:55:00;102130.50;;;13.58;31.87
27613;BME280;15036;48.094;-1.690;2023-02-28T14:05:38;102122.66;;;13.10;33.41
27613;BME280;15036;48.094;-1.690;2023-02-28T14:08:24;102132.50;;;12.65;34.71
27613;BME280;15036;48.094;-1.690;2023-02-28T14:11:02;102134.19;;;12.28;35.29
27613;BME280;15036;48.094;-1.690;2023-02-28T14:13:45;102127.13;;;11.78;36.02
27613;BME280;15036;48.094;-1.690;2023-02-28T14:16:23;102143.44;;;12.27;35.74
27613;BME280;15036;48.094;-1.690;2023-02-28T14:18:51;102140.34;;;12.30;36.05
27613;BME280;15036;48.094;-1.690;2023-02-28T14:21:26;102136.69;;;11.50;37.06
27613;BME280;15036;48.094;-1.690;2023-02-28T14:26:59;102144.38;;;11.87;36.87
27613;BME280;15036;48.094;-1.690;2023-02-28T14:34:54;102127.66;;;11.66;37.68
27613;BME280;15036;48.094;-1.690;2023-02-28T14:37:28;102144.06;;;11.66;37.87
27613;BME280;15036;48.094;-1.690;2023-02-28T14:39:54;102141.13;;;11.27;39.15
27613;BME280;15036;48.094;-1.690;2023-02-28T14:42:36;102124.72;;;11.11;39.98
27613;BME280;15036;48.094;-1.690;2023-02-28T14:45:03;102146.09;;;11.48;40.38
27613;BME280;15036;48.094;-1.690;2023-02-28T14:47:33;102129.50;;;11.49;41.54
27613;BME280;15036;48.094;-1.690;2023-02-28T14:50:02;102146.59;;;11.19;43.33
27613;BME280;15036;48.094;-1.690;2023-02-28T14:52:30;102139.56;;;11.00;43.64